createdAt,value
2019-03-27T00:01:53.098Z,26.75
2019-03-27T00:04:22.979Z,26.15
2019-03-27T00:06:52.826Z,25.65
2019-03-27T00:09:22.640Z,24.72
2019-03-27T00:11:52.462Z,23.77
2019-03-27T00:14:22.361Z,26.55
2019-03-27T00:16:52.187Z,25.62
2019-03-27T00:19:22.002Z,23.03
2019-03-27T00:21:51.844Z,24.55
2019-03-27T00:24:22.718Z,24.23
2019-03-27T00:27:10.721Z,22.50
2019-03-27T00:29:40.528Z,25.02
2019-03-27T00:32:11.929Z,21.87
2019-03-27T00:34:44.207Z,22.58
2019-03-27T00:37:14.117Z,25.65
2019-03-27T00:39:43.916Z,26.05
2019-03-27T00:42:13.761Z,24.12
2019-03-27T00:44:43.658Z,23.47
2019-03-27T00:47:13.794Z,23.45
2019-03-27T00:49:43.571Z,23.30
2019-03-27T00:52:13.396Z,26.77
2019-03-27T00:54:43.150Z,24.00
2019-03-27T00:57:12.995Z,24.18
2019-03-27T00:59:42.745Z,26.20
2019-03-27T01:02:12.436Z,24.07
2019-03-27T01:04:42.258Z,23.35
2019-03-27T01:07:12.027Z,25.27
2019-03-27T01:09:41.918Z,26.55
2019-03-27T01:12:11.749Z,23.85
2019-03-27T01:14:41.648Z,23.25
2019-03-27T01:17:11.443Z,24.47
2019-03-27T01:19:41.277Z,25.23
2019-03-27T01:22:11.112Z,23.35
2019-03-27T01:24:41.001Z,28.77
2019-03-27T01:27:10.830Z,21.17
2019-03-27T01:29:40.733Z,24.27
2019-03-27T01:32:10.570Z,26.73
2019-03-27T01:34:40.392Z,27.42
2019-03-27T01:37:10.230Z,25.15
2019-03-27T01:39:40.044Z,29.45
2019-03-27T01:42:09.941Z,23.95
2019-03-27T01:44:39.828Z,26.07
2019-03-27T01:47:10.331Z,25.17
2019-03-27T01:49:40.252Z,25.05
2019-03-27T01:52:10.050Z,27.55
2019-03-27T01:54:39.793Z,26.85
2019-03-27T01:57:13.100Z,26.90
2019-03-27T01:59:42.861Z,29.72
2019-03-27T02:02:12.628Z,22.82
2019-03-27T02:04:42.523Z,29.47
2019-03-27T02:07:13.394Z,23.50
2019-03-27T02:09:43.209Z,26.70
2019-03-27T02:12:13.077Z,24.27
2019-03-27T02:14:42.893Z,26.87
2019-03-27T02:17:30.764Z,24.57
2019-03-27T02:20:00.503Z,28.00
2019-03-27T02:22:31.221Z,26.07
2019-03-27T02:25:01.100Z,28.85
2019-03-27T02:27:31.903Z,28.50
2019-03-27T02:30:01.659Z,27.45
2019-03-27T02:32:31.559Z,29.12
2019-03-27T02:35:01.519Z,23.65
2019-03-27T02:37:32.295Z,26.90
2019-03-27T02:40:02.154Z,27.93
2019-03-27T02:42:31.955Z,27.07
2019-03-27T02:45:01.749Z,27.45
2019-03-27T02:47:31.633Z,28.43
2019-03-27T02:50:01.460Z,26.95
2019-03-27T02:52:31.459Z,24.40
2019-03-27T02:55:01.293Z,26.62
2019-03-27T02:57:31.041Z,27.42
2019-03-27T03:00:00.916Z,25.95
2019-03-27T03:02:30.830Z,28.30
2019-03-27T03:05:01.526Z,29.55
2019-03-27T03:07:34.479Z,28.83
2019-03-27T03:10:06.841Z,23.45
2019-03-27T03:12:36.686Z,28.12
2019-03-27T03:15:07.779Z,27.87
2019-03-27T03:17:37.596Z,25.68
2019-03-27T03:20:08.247Z,29.13
2019-03-27T03:22:38.120Z,26.12
2019-03-27T03:25:08.099Z,25.23
2019-03-27T03:27:37.899Z,26.75
2019-03-27T03:30:10.940Z,25.30
2019-03-27T03:32:40.796Z,28.20
2019-03-27T03:35:10.653Z,26.85
2019-03-27T03:37:40.536Z,27.73
2019-03-27T03:40:12.063Z,24.70
2019-03-27T03:42:42.019Z,27.62
2019-03-27T03:45:11.943Z,25.95
2019-03-27T03:47:41.817Z,26.95
2019-03-27T03:50:14.522Z,27.77
2019-03-27T03:52:45.971Z,26.65
2019-03-27T03:55:15.971Z,28.05
2019-03-27T03:57:47.916Z,24.95
2019-03-27T04:00:17.682Z,28.00
2019-03-27T04:02:49.284Z,26.57
2019-03-27T04:05:22.122Z,27.65
2019-03-27T04:07:52.011Z,27.62
2019-03-27T04:10:21.794Z,29.02
2019-03-27T04:12:51.682Z,31.30
2019-03-27T04:15:21.534Z,27.73
2019-03-27T04:17:51.360Z,22.73
2019-03-27T04:20:22.229Z,28.77
2019-03-27T04:22:52.040Z,27.37
2019-03-27T04:25:21.918Z,28.83
2019-03-27T04:27:51.717Z,29.45
2019-03-27T04:30:22.559Z,28.83
2019-03-27T04:32:52.386Z,26.70
2019-03-27T04:35:22.139Z,26.17
2019-03-27T04:37:52.076Z,28.07
2019-03-27T04:40:21.957Z,26.62
2019-03-27T04:42:51.834Z,27.25
2019-03-27T04:45:21.607Z,31.10
2019-03-27T04:47:51.586Z,28.30
2019-03-27T04:50:21.468Z,27.63
2019-03-27T04:52:51.363Z,27.45
2019-03-27T04:55:21.206Z,28.52
2019-03-27T04:57:51.063Z,28.23
2019-03-27T05:00:20.883Z,26.03
2019-03-27T05:02:53.243Z,27.90
2019-03-27T05:05:23.003Z,29.27
2019-03-27T05:07:52.825Z,31.65
2019-03-27T05:10:22.539Z,29.05
2019-03-27T05:12:53.950Z,28.42
2019-03-27T05:15:23.733Z,26.82
2019-03-27T05:17:53.978Z,28.55
2019-03-27T05:20:23.818Z,26.02
2019-03-27T05:22:53.701Z,25.52
2019-03-27T05:25:23.509Z,28.45
2019-03-27T05:27:53.513Z,27.95
2019-03-27T05:30:26.181Z,26.93
2019-03-27T05:32:56.470Z,26.27
2019-03-27T05:35:26.238Z,31.23
2019-03-27T05:37:56.096Z,31.00
2019-03-27T05:40:25.996Z,27.03
2019-03-27T05:43:01.099Z,28.07
2019-03-27T05:45:27.488Z,29.70
2019-03-27T05:47:59.876Z,27.05
2019-03-27T05:50:28.829Z,25.92
2019-03-27T05:52:58.709Z,24.80
2019-03-27T05:55:28.607Z,32.35
2019-03-27T05:57:58.556Z,31.15
2019-03-27T06:00:28.443Z,28.38
2019-03-27T06:02:58.341Z,30.35
2019-03-27T06:05:28.162Z,28.65
2019-03-27T06:07:57.885Z,29.63
2019-03-27T06:10:27.599Z,30.17
2019-03-27T06:12:57.504Z,29.80
2019-03-27T06:15:27.315Z,34.08
2019-03-27T06:17:57.122Z,30.43
2019-03-27T06:20:26.833Z,29.55
2019-03-27T06:22:57.813Z,31.80
2019-03-27T06:25:27.834Z,29.32
2019-03-27T06:27:57.677Z,29.77
2019-03-27T06:30:27.433Z,28.23
2019-03-27T06:32:57.268Z,30.47
2019-03-27T06:35:27.135Z,31.68
2019-03-27T06:37:57.147Z,32.53
2019-03-27T06:40:26.965Z,32.28
2019-03-27T06:42:56.798Z,31.17
2019-03-27T06:45:26.634Z,29.67
2019-03-27T06:47:56.523Z,31.25
2019-03-27T06:50:28.651Z,30.35
2019-03-27T06:52:58.511Z,32.15
2019-03-27T06:55:28.554Z,28.47
2019-03-27T06:57:58.417Z,28.98
2019-03-27T07:00:38.336Z,34.20
2019-03-27T07:03:08.427Z,27.60
2019-03-27T07:05:38.328Z,32.17
2019-03-27T07:08:08.132Z,33.75
2019-03-27T07:10:38.066Z,29.10
2019-03-27T07:13:08.006Z,29.55
2019-03-27T07:15:37.813Z,28.42
2019-03-27T07:18:07.631Z,31.42
2019-03-27T07:20:59.939Z,27.13
2019-03-27T07:23:35.550Z,30.15
2019-03-27T07:26:41.741Z,32.63
2019-03-27T07:29:11.582Z,30.52
2019-03-27T07:31:41.359Z,32.65
2019-03-27T07:34:12.247Z,27.40
2019-03-27T07:36:42.207Z,34.00
2019-03-27T07:39:12.060Z,32.30
2019-03-27T07:41:41.939Z,31.27
2019-03-27T07:44:11.753Z,31.68
2019-03-27T07:46:41.650Z,33.15
2019-03-27T07:49:11.481Z,48.10
2019-03-27T07:51:41.385Z,47.05
2019-03-27T07:54:11.236Z,44.65
2019-03-27T07:56:41.331Z,37.73
2019-03-27T07:59:11.169Z,37.98
2019-03-27T08:01:41.064Z,40.23
2019-03-27T08:04:14.119Z,36.63
2019-03-27T08:06:42.347Z,39.08
2019-03-27T08:09:12.102Z,40.30
2019-03-27T08:11:42.014Z,40.33
2019-03-27T08:14:12.966Z,37.90
2019-03-27T08:16:42.914Z,39.17
2019-03-27T08:19:13.839Z,39.13
2019-03-27T08:21:43.839Z,38.67
2019-03-27T08:24:13.677Z,38.13
2019-03-27T08:26:43.556Z,40.85
2019-03-27T08:29:14.038Z,39.15
2019-03-27T08:31:43.982Z,38.28
2019-03-27T08:34:13.845Z,40.15
2019-03-27T08:36:44.758Z,38.60
2019-03-27T08:39:14.527Z,38.75
2019-03-27T08:41:44.413Z,41.37
2019-03-27T08:44:14.176Z,41.88
2019-03-27T08:46:44.149Z,37.03
2019-03-27T08:49:21.962Z,37.73
2019-03-27T08:51:45.432Z,38.95
2019-03-27T08:54:15.319Z,39.42
2019-03-27T08:56:45.377Z,39.75
2019-03-27T08:59:15.157Z,44.13
2019-03-27T09:01:45.029Z,39.10
2019-03-27T09:04:14.882Z,40.33
2019-03-27T09:06:44.777Z,38.35
2019-03-27T09:09:14.614Z,40.63
2019-03-27T09:11:44.499Z,40.88
2019-03-27T09:14:14.315Z,38.67
2019-03-27T09:16:44.215Z,45.17
2019-03-27T09:19:14.073Z,38.85
2019-03-27T09:21:44.971Z,42.35
2019-03-27T09:24:14.865Z,39.33
2019-03-27T09:26:44.690Z,40.63
2019-03-27T09:29:14.505Z,41.88
2019-03-27T09:31:45.423Z,41.88
2019-03-27T09:34:17.696Z,39.88
2019-03-27T09:36:46.882Z,41.13
2019-03-27T09:39:16.779Z,43.55
2019-03-27T09:41:46.549Z,42.67
2019-03-27T09:44:16.277Z,41.90
2019-03-27T09:46:46.166Z,44.27
2019-03-27T09:49:16.069Z,41.33
2019-03-27T09:51:45.871Z,44.90
2019-03-27T09:54:15.691Z,41.33
2019-03-27T09:56:45.590Z,41.13
2019-03-27T09:59:15.485Z,41.30
2019-03-27T10:01:48.341Z,44.45
2019-03-27T10:04:18.241Z,39.65
2019-03-27T10:06:48.166Z,39.30
2019-03-27T10:09:17.982Z,40.95
2019-03-27T10:11:47.877Z,38.88
2019-03-27T10:14:17.653Z,34.90
2019-03-27T10:16:47.519Z,34.60
2019-03-27T10:19:17.388Z,34.10
2019-03-27T10:21:47.200Z,30.60
2019-03-27T10:24:18.033Z,33.75
2019-03-27T10:26:47.869Z,31.33
2019-03-27T10:29:17.740Z,30.20
2019-03-27T10:31:47.635Z,29.90
2019-03-27T10:34:17.517Z,29.87
2019-03-27T10:36:47.378Z,28.65
2019-03-27T10:39:17.225Z,28.70
2019-03-27T10:41:47.132Z,29.55
2019-03-27T10:44:17.917Z,28.98
2019-03-27T10:46:50.329Z,25.37
2019-03-27T10:49:20.244Z,27.85
2019-03-27T10:51:51.713Z,27.40
2019-03-27T10:54:22.714Z,27.98
2019-03-27T10:56:52.678Z,25.57
2019-03-27T10:59:22.581Z,27.25
2019-03-27T11:01:52.499Z,26.20
2019-03-27T11:04:22.322Z,24.32
2019-03-27T11:06:52.165Z,22.80
2019-03-27T11:09:22.064Z,24.10
2019-03-27T11:11:53.536Z,23.73
2019-03-27T11:14:36.912Z,24.35
2019-03-27T11:16:54.890Z,22.20
2019-03-27T11:19:24.738Z,23.87
2019-03-27T11:21:54.569Z,22.30
2019-03-27T11:24:27.853Z,19.87
2019-03-27T11:26:57.167Z,20.40
2019-03-27T11:29:26.978Z,21.03
2019-03-27T11:31:56.793Z,18.23
2019-03-27T11:34:26.640Z,20.82
2019-03-27T11:36:56.467Z,20.87
2019-03-27T11:39:26.235Z,19.82
2019-03-27T11:41:56.135Z,18.95
2019-03-27T11:44:25.965Z,19.12
2019-03-27T11:46:59.217Z,17.75
2019-03-27T11:49:30.081Z,17.60
2019-03-27T11:51:59.892Z,17.52
2019-03-27T11:54:30.781Z,16.93
2019-03-27T11:57:00.988Z,19.30
2019-03-27T11:59:30.921Z,20.95
2019-03-27T12:02:00.757Z,17.55
2019-03-27T12:04:30.637Z,18.00
2019-03-27T12:07:00.642Z,17.65
2019-03-27T12:09:30.497Z,17.48
2019-03-27T12:12:00.319Z,15.03
2019-03-27T12:14:30.182Z,15.85
2019-03-27T12:17:01.065Z,17.20
2019-03-27T12:19:30.945Z,16.40
2019-03-27T12:22:00.785Z,17.80
2019-03-27T12:24:30.706Z,16.55
2019-03-27T12:27:02.624Z,15.95
2019-03-27T12:29:32.530Z,17.67
2019-03-27T12:32:02.350Z,16.95
2019-03-27T12:34:32.336Z,18.27
2019-03-27T12:37:02.300Z,16.15
2019-03-27T12:39:32.189Z,15.77
2019-03-27T12:42:02.010Z,17.10
2019-03-27T12:44:31.909Z,16.60
2019-03-27T12:47:02.876Z,17.42
2019-03-27T12:49:32.768Z,14.57
2019-03-27T12:52:05.417Z,17.23
2019-03-27T12:54:34.166Z,15.93
2019-03-27T12:57:05.096Z,16.87
2019-03-27T12:59:35.081Z,14.98
2019-03-27T13:02:06.255Z,19.77
2019-03-27T13:04:38.345Z,17.67
2019-03-27T13:07:09.322Z,18.10
2019-03-27T13:09:39.281Z,17.25
2019-03-27T13:12:12.327Z,16.87
2019-03-27T13:14:42.485Z,16.73
2019-03-27T13:17:12.467Z,17.07
2019-03-27T13:19:44.407Z,15.13
2019-03-27T13:22:18.827Z,13.35
2019-03-27T13:24:48.664Z,13.58
2019-03-27T13:27:19.785Z,17.55
2019-03-27T13:29:49.558Z,15.75
2019-03-27T13:32:19.497Z,15.03
2019-03-27T13:34:49.326Z,17.60
2019-03-27T13:37:22.789Z,15.18
2019-03-27T13:39:55.062Z,12.23
2019-03-27T13:42:26.493Z,13.35
2019-03-27T13:44:56.378Z,15.63
2019-03-27T13:47:27.224Z,10.95
2019-03-27T13:49:57.045Z,15.18
2019-03-27T13:52:26.961Z,13.43
2019-03-27T13:54:56.778Z,11.20
2019-03-27T13:57:26.649Z,13.45
2019-03-27T13:59:56.549Z,12.18
2019-03-27T14:02:26.397Z,15.65
2019-03-27T14:04:56.277Z,14.93
2019-03-27T14:07:26.225Z,12.90
2019-03-27T14:09:56.103Z,15.03
2019-03-27T14:12:26.006Z,17.55
2019-03-27T14:14:55.769Z,16.93
2019-03-27T14:17:25.600Z,17.40
2019-03-27T14:19:55.581Z,13.72
2019-03-27T14:22:25.348Z,16.30
2019-03-27T14:24:55.133Z,16.20
2019-03-27T14:27:24.938Z,14.47
2019-03-27T14:29:54.878Z,15.55
2019-03-27T14:32:24.786Z,12.63
2019-03-27T14:34:54.526Z,16.87
2019-03-27T14:37:26.469Z,15.15
2019-03-27T14:39:56.921Z,20.27
2019-03-27T14:42:26.831Z,17.40
2019-03-27T14:44:56.721Z,15.53
2019-03-27T14:47:28.593Z,16.30
2019-03-27T14:49:58.505Z,17.42
2019-03-27T14:52:28.433Z,17.15
2019-03-27T14:54:58.352Z,18.67
2019-03-27T14:57:28.198Z,15.47
2019-03-27T14:59:58.076Z,14.13
2019-03-27T15:02:27.842Z,15.80
2019-03-27T15:04:57.678Z,13.03
2019-03-27T15:07:27.649Z,14.25
2019-03-27T15:09:58.050Z,17.50
2019-03-27T15:12:28.956Z,13.53
2019-03-27T15:14:58.809Z,14.30
2019-03-27T15:17:31.373Z,16.52
2019-03-27T15:20:01.292Z,14.15
2019-03-27T15:22:31.170Z,14.45
2019-03-27T15:25:01.095Z,13.90
2019-03-27T15:27:31.993Z,12.70
2019-03-27T15:30:02.532Z,15.40
2019-03-27T15:32:32.434Z,15.03
2019-03-27T15:35:02.254Z,11.68
2019-03-27T15:37:32.172Z,13.80
2019-03-27T15:40:03.066Z,13.22
2019-03-27T15:42:33.437Z,13.10
2019-03-27T15:45:09.656Z,14.40
2019-03-27T15:47:39.553Z,18.02
2019-03-27T15:50:10.447Z,13.40
2019-03-27T15:52:40.354Z,14.45
2019-03-27T15:55:10.415Z,14.03
2019-03-27T15:57:40.349Z,12.63
2019-03-27T16:00:12.909Z,14.25
2019-03-27T16:02:42.798Z,14.28
2019-03-27T16:05:12.686Z,14.87
2019-03-27T16:07:42.502Z,13.13
2019-03-27T16:10:12.519Z,12.45
2019-03-27T16:12:42.415Z,11.00
2019-03-27T16:15:13.228Z,11.12
2019-03-27T16:17:43.121Z,11.78
2019-03-27T16:20:14.021Z,12.65
2019-03-27T16:22:50.667Z,17.62
2019-03-27T16:25:15.585Z,12.45
2019-03-27T16:27:45.416Z,16.97
2019-03-27T16:30:17.159Z,19.20
2019-03-27T16:32:46.970Z,13.63
2019-03-27T16:35:16.867Z,17.95
2019-03-27T16:37:46.769Z,16.70
2019-03-27T16:40:19.569Z,14.27
2019-03-27T16:42:49.425Z,14.75
2019-03-27T16:45:22.513Z,15.35
2019-03-27T16:47:52.364Z,10.88
2019-03-27T16:50:22.223Z,15.20
2019-03-27T16:53:03.121Z,18.60
2019-03-27T16:55:26.967Z,14.63
2019-03-27T16:57:56.781Z,15.60
2019-03-27T17:00:27.140Z,17.48
2019-03-27T17:02:57.043Z,16.65
2019-03-27T17:05:27.967Z,19.98
2019-03-27T17:07:57.808Z,18.90
2019-03-27T17:10:27.712Z,22.73
2019-03-27T17:12:57.421Z,17.12
2019-03-27T17:15:27.327Z,19.80
2019-03-27T17:17:57.211Z,19.12
2019-03-27T17:20:27.084Z,20.62
2019-03-27T17:22:56.933Z,20.70
2019-03-27T17:25:26.817Z,24.13
2019-03-27T17:27:56.736Z,20.82
2019-03-27T17:30:26.772Z,23.67
2019-03-27T17:32:56.675Z,22.48
2019-03-27T17:35:26.652Z,19.50
2019-03-27T17:37:56.386Z,22.40
2019-03-27T17:40:26.256Z,23.65
2019-03-27T17:42:56.101Z,25.90
2019-03-27T17:45:26.030Z,23.42
2019-03-27T17:47:55.926Z,24.92
2019-03-27T17:50:25.794Z,22.50
2019-03-27T17:52:58.865Z,24.10
2019-03-27T17:55:49.353Z,24.07
2019-03-27T17:58:19.252Z,25.77
2019-03-27T18:00:51.047Z,23.98
2019-03-27T18:03:21.727Z,23.97
2019-03-27T18:05:51.734Z,22.17
2019-03-27T18:08:21.579Z,25.23
2019-03-27T18:10:52.493Z,24.90
2019-03-27T18:13:22.261Z,24.67
2019-03-27T18:15:52.179Z,25.02
2019-03-27T18:18:22.080Z,25.05
2019-03-27T18:20:51.969Z,28.77
2019-03-27T18:23:23.392Z,25.43
2019-03-27T18:25:56.526Z,29.00
2019-03-27T18:28:26.386Z,25.92
2019-03-27T18:30:56.398Z,24.67
2019-03-27T18:33:26.176Z,25.82
2019-03-27T18:35:56.117Z,24.43
2019-03-27T18:38:26.085Z,26.30
2019-03-27T18:40:55.979Z,27.62
2019-03-27T18:43:25.782Z,27.50
2019-03-27T18:45:58.781Z,30.48
2019-03-27T18:48:28.658Z,27.98
2019-03-27T18:50:58.576Z,26.02
2019-03-27T18:53:28.384Z,28.62
2019-03-27T18:55:59.247Z,28.23
2019-03-27T18:58:32.991Z,29.23
2019-03-27T19:01:02.877Z,27.13
2019-03-27T19:03:32.686Z,29.07
2019-03-27T19:06:08.601Z,25.88
2019-03-27T19:08:38.481Z,30.23
2019-03-27T19:11:09.964Z,27.80
2019-03-27T19:13:39.797Z,31.82
2019-03-27T19:16:09.724Z,29.10
2019-03-27T19:18:39.638Z,31.68
2019-03-27T19:21:09.507Z,29.32
2019-03-27T19:23:39.353Z,34.95
2019-03-27T19:26:12.315Z,36.08
2019-03-27T19:28:42.178Z,32.78
2019-03-27T19:31:12.089Z,33.88
2019-03-27T19:33:41.947Z,32.83
2019-03-27T19:36:12.894Z,36.17
2019-03-27T19:38:42.771Z,33.38
2019-03-27T19:41:12.609Z,33.42
2019-03-27T19:43:42.508Z,33.00
2019-03-27T19:46:13.313Z,31.77
2019-03-27T19:48:43.289Z,32.03
2019-03-27T19:51:13.092Z,34.50
2019-03-27T19:53:44.240Z,35.63
2019-03-27T19:56:14.045Z,36.00
2019-03-27T19:58:43.949Z,37.90
2019-03-27T20:01:13.713Z,37.60
2019-03-27T20:03:44.334Z,36.05
2019-03-27T20:06:14.198Z,38.75
2019-03-27T20:08:44.099Z,39.33
2019-03-27T20:11:13.874Z,38.70
2019-03-27T20:13:43.781Z,38.73
2019-03-27T20:16:13.691Z,37.45
2019-03-27T20:18:43.579Z,37.93
2019-03-27T20:21:13.454Z,40.60
2019-03-27T20:23:43.364Z,38.93
2019-03-27T20:26:13.247Z,37.95
2019-03-27T20:28:43.154Z,37.53
2019-03-27T20:31:13.103Z,38.20
2019-03-27T20:33:42.957Z,38.80
2019-03-27T20:36:13.271Z,38.48
2019-03-27T20:38:43.121Z,41.93
2019-03-27T20:41:12.974Z,38.80
2019-03-27T20:43:42.888Z,38.65
2019-03-27T20:46:24.314Z,38.05
2019-03-27T20:48:44.192Z,40.23
2019-03-27T20:51:14.095Z,38.58
2019-03-27T20:53:44.006Z,38.63
2019-03-27T20:56:13.990Z,39.70
2019-03-27T20:58:43.877Z,41.48
2019-03-27T21:01:13.764Z,37.75
2019-03-27T21:03:43.637Z,37.17
2019-03-27T21:06:13.569Z,37.70
2019-03-27T21:08:43.470Z,38.58
2019-03-27T21:11:13.300Z,35.92
2019-03-27T21:13:43.283Z,33.88
2019-03-27T21:16:18.617Z,36.97
2019-03-27T21:18:49.622Z,38.83
2019-03-27T21:21:19.504Z,37.30
2019-03-27T21:23:49.420Z,36.35
2019-03-27T21:26:19.267Z,40.28
2019-03-27T21:28:49.160Z,38.23
2019-03-27T21:31:19.002Z,36.87
2019-03-27T21:33:49.039Z,38.95
2019-03-27T21:36:18.869Z,35.17
2019-03-27T21:38:48.781Z,33.98
2019-03-27T21:41:18.647Z,34.80
2019-03-27T21:43:48.462Z,35.73
2019-03-27T21:46:36.167Z,39.10
2019-03-27T21:49:06.137Z,34.33
2019-03-27T21:51:36.006Z,35.20
2019-03-27T21:54:06.672Z,37.25
2019-03-27T21:56:36.463Z,38.55
2019-03-27T21:59:06.349Z,37.48
2019-03-27T22:01:36.194Z,34.08
2019-03-27T22:04:06.233Z,37.53
2019-03-27T22:07:12.395Z,37.83
2019-03-27T22:09:42.326Z,35.55
2019-03-27T22:12:13.631Z,35.03
2019-03-27T22:14:43.955Z,39.53
2019-03-27T22:17:13.804Z,37.75
2019-03-27T22:19:43.708Z,36.23
2019-03-27T22:22:13.540Z,37.58
2019-03-27T22:24:43.409Z,38.23
2019-03-27T22:27:15.909Z,39.20
2019-03-27T22:29:45.795Z,35.45
2019-03-27T22:32:15.660Z,40.38
2019-03-27T22:34:45.543Z,34.15
2019-03-27T22:37:15.481Z,39.90
2019-03-27T22:39:45.378Z,38.10
2019-03-27T22:42:15.392Z,38.40
2019-03-27T22:44:48.948Z,37.23
2019-03-27T22:47:18.991Z,37.78
2019-03-27T22:49:48.916Z,36.55
2019-03-27T22:52:18.802Z,40.83
2019-03-27T22:54:48.696Z,39.65
2019-03-27T22:57:18.764Z,35.78
2019-03-27T22:59:48.673Z,37.38
2019-03-27T23:02:18.640Z,38.50
2019-03-27T23:04:48.937Z,37.98
2019-03-27T23:07:19.785Z,38.02
2019-03-27T23:09:49.566Z,37.20
2019-03-27T23:12:19.567Z,36.68
2019-03-27T23:14:49.439Z,35.90
2019-03-27T23:17:19.328Z,36.75
2019-03-27T23:19:51.274Z,34.90
2019-03-27T23:22:21.744Z,40.88
2019-03-27T23:24:51.698Z,36.08
2019-03-27T23:27:21.572Z,37.65
2019-03-27T23:29:51.449Z,36.68
2019-03-27T23:32:21.352Z,36.17
2019-03-27T23:34:51.208Z,37.93
2019-03-27T23:37:27.308Z,33.50
2019-03-27T23:40:02.965Z,36.73
2019-03-27T23:42:32.831Z,36.88
2019-03-27T23:45:02.584Z,34.43
2019-03-27T23:47:33.468Z,36.68
2019-03-27T23:50:03.287Z,40.88
2019-03-27T23:52:33.167Z,36.77
2019-03-27T23:55:02.997Z,35.98
2019-03-27T23:57:38.460Z,35.73
